Time;durP1;ratioP1;P1;durP2;ratioP2;P2;SDS_P1;SDS_P2;PMS_P1;PMS_P2;Temp;Humidity;BMP_temperature;BMP_pressure;BME280_temperature;BME280_humidity;BME280_pressure;Samples;Min_cycle;Max_cycle;Signal;HPM_P1;HPM_P2
2023/10/20 00:01:42;;;;;;;;;0.00;0.00;;;;;20.69;87.52;97290.75;6190439;22;44908;-85
2023/10/20 00:04:07;;;;;;;;;0.00;0.00;;;;;20.65;88.00;97289.28;6191735;22;45404;-85
2023/10/20 00:06:38;;;;;;;;;0.00;0.00;;;;;20.58;88.84;97278.09;6191496;22;47266;-86
2023/10/20 00:09:06;;;;;;;;;0.00;0.00;;;;;20.60;89.29;97275.28;6188927;22;45401;-86
2023/10/20 00:11:32;;;;;;;;;0.00;0.00;;;;;20.50;90.05;97276.03;6189166;22;45401;-85
2023/10/20 00:13:57;;;;;;;;;0.00;0.00;;;;;20.45;90.10;97270.16;6217120;22;45386;-85
2023/10/20 00:16:27;;;;;;;;;0.50;0.00;;;;;20.62;91.37;97262.53;6215871;22;46603;-84
2023/10/20 00:18:53;;;;;;;;;0.00;0.00;;;;;20.42;91.76;97253.34;6189145;22;45749;-85
2023/10/20 00:21:19;;;;;;;;;0.00;0.00;;;;;20.37;92.45;97241.06;6186574;22;45414;-84
2023/10/20 00:23:45;;;;;;;;;0.25;0.25;;;;;20.40;92.82;97242.69;6213570;22;45357;-86
2023/10/20 00:26:11;;;;;;;;;0.00;0.00;;;;;20.38;93.32;97233.84;6190068;22;47226;-85
2023/10/20 00:28:36;;;;;;;;;0.00;0.00;;;;;20.35;93.07;97223.31;6217279;22;45362;-86
2023/10/20 00:31:02;;;;;;;;;0.00;0.00;;;;;20.39;93.55;97227.47;6189139;22;45250;-86
2023/10/20 00:33:28;;;;;;;;;0.00;0.00;;;;;20.36;93.82;97233.13;6216533;22;45635;-86
2023/10/20 00:35:54;;;;;;;;;0.00;0.00;;;;;20.36;93.67;97230.44;6215611;22;45530;-86
2023/10/20 00:38:19;;;;;;;;;0.00;0.00;;;;;20.38;93.39;97228.47;6188735;22;45404;-86
2023/10/20 00:40:46;;;;;;;;;0.00;0.00;;;;;20.39;93.07;97233.72;6216449;22;45412;-86
2023/10/20 00:43:12;;;;;;;;;0.00;0.00;;;;;20.29;92.94;97237.31;6189246;22;45402;-86
2023/10/20 00:45:40;;;;;;;;;0.00;0.00;;;;;20.41;92.63;97243.53;6216424;22;45703;-85
2023/10/20 00:48:09;;;;;;;;;0.00;0.00;;;;;20.29;92.62;97245.41;6213583;22;45687;-86
2023/10/20 00:50:35;;;;;;;;;0.00;0.00;;;;;20.28;92.41;97243.66;6216534;22;45383;-86
2023/10/20 00:53:02;;;;;;;;;0.00;0.00;;;;;20.19;92.71;97256.06;6189201;22;45395;-86
2023/10/20 00:55:30;;;;;;;;;0.00;0.00;;;;;20.21;92.58;97246.00;6188979;22;47329;-85
2023/10/20 00:58:03;;;;;;;;;0.00;0.00;;;;;20.28;92.59;97243.66;6184365;22;46067;-86
2023/10/20 01:00:37;;;;;;;;;0.00;0.00;;;;;20.41;92.05;97238.13;6211505;22;45413;-85
2023/10/20 01:03:02;;;;;;;;;0.00;0.00;;;;;20.16;92.43;97240.16;6214571;22;45464;-84
2023/10/20 01:05:28;;;;;;;;;0.00;0.00;;;;;20.18;92.31;97233.63;6211909;22;45371;-85
2023/10/20 01:07:53;;;;;;;;;0.00;0.00;;;;;20.14;92.31;97221.38;6215205;22;45415;-86
2023/10/20 01:10:20;;;;;;;;;0.00;0.00;;;;;20.16;92.28;97200.53;6216387;22;45300;-86
2023/10/20 01:12:45;;;;;;;;;0.00;0.00;;;;;20.12;92.06;97190.97;6216254;22;44918;-86
2023/10/20 01:15:15;;;;;;;;;0.00;0.00;;;;;20.25;92.17;97173.78;6188510;22;48268;-86
2023/10/20 01:17:40;;;;;;;;;0.00;0.00;;;;;20.01;92.00;97169.41;6188720;22;45522;-86
2023/10/20 01:20:07;;;;;;;;;0.00;0.00;;;;;20.03;92.30;97178.22;6189379;22;45359;-86
2023/10/20 01:22:33;;;;;;;;;0.00;0.00;;;;;19.99;91.92;97184.84;6189649;22;45850;-86
2023/10/20 01:24:59;;;;;;;;;0.00;0.00;;;;;19.89;92.11;97181.19;6217159;22;45321;-86
2023/10/20 01:27:24;;;;;;;;;0.00;0.00;;;;;19.89;91.81;97181.19;6217745;22;45256;-85
2023/10/20 01:29:50;;;;;;;;;0.00;0.00;;;;;19.82;91.99;97166.50;6190234;22;45326;-86
2023/10/20 01:32:15;;;;;;;;;1.00;1.00;;;;;19.81;91.79;97159.38;6217105;22;45274;-86
2023/10/20 01:34:41;;;;;;;;;0.00;0.00;;;;;19.76;91.32;97155.22;6215871;22;45451;-85
2023/10/20 01:37:11;;;;;;;;;0.00;0.00;;;;;19.77;91.64;97151.56;6213991;22;45399;-86
2023/10/20 01:39:37;;;;;;;;;0.00;0.00;;;;;19.77;91.88;97142.59;6188486;22;45278;-86
2023/10/20 01:42:02;;;;;;;;;0.00;0.00;;;;;19.83;91.45;97141.25;6216494;22;45448;-85
2023/10/20 01:44:27;;;;;;;;;0.00;0.00;;;;;19.83;91.65;97141.25;6190528;22;46794;-86
2023/10/20 01:46:53;;;;;;;;;0.00;0.00;;;;;19.80;92.07;97146.91;6218686;22;45617;-85
2023/10/20 01:49:18;;;;;;;;;0.00;0.00;;;;;19.78;92.53;97145.16;6217989;22;45366;-86
2023/10/20 01:51:44;;;;;;;;;0.00;0.00;;;;;19.78;91.63;97123.59;6190737;22;45352;-87
2023/10/20 01:54:09;;;;;;;;;0.00;0.00;;;;;19.82;91.06;97115.28;6217984;22;45355;-86
2023/10/20 01:56:35;;;;;;;;;0.00;0.00;;;;;19.87;91.09;97121.97;6219352;22;45387;-86
2023/10/20 01:59:00;;;;;;;;;0.00;0.00;;;;;19.88;91.57;97118.31;6160308;23;45573;-87
2023/10/20 02:01:26;;;;;;;;;0.00;0.00;;;;;19.92;91.26;97109.00;6187010;23;45330;-87
2023/10/20 02:03:59;;;;;;;;;0.00;0.00;;;;;20.11;91.07;97107.47;6158232;23;47690;-87
2023/10/20 02:06:24;;;;;;;;;0.00;0.00;;;;;19.77;91.82;97091.38;6159284;23;45402;-86
2023/10/20 02:08:51;;;;;;;;;0.00;0.00;;;;;19.76;92.02;97085.13;6187085;23;45367;-86
2023/10/20 02:11:16;;;;;;;;;0.00;0.00;;;;;19.67;92.02;97069.66;6160996;23;45735;-83
2023/10/20 02:13:45;;;;;;;;;0.00;0.00;;;;;19.70;90.91;97057.78;6186608;22;45420;-84
2023/10/20 02:16:11;;;;;;;;;0.00;0.00;;;;;19.72;91.50;97051.31;6160263;23;45721;-85
2023/10/20 02:18:38;;;;;;;;;0.00;0.00;;;;;19.68;91.40;97049.81;6185730;23;45419;-85
2023/10/20 02:21:04;;;;;;;;;0.00;0.00;;;;;19.62;91.41;97041.38;6163844;23;45498;-84
2023/10/20 02:23:38;;;;;;;;;0.00;0.00;;;;;19.53;91.59;97040.28;6161369;23;47715;-85
2023/10/20 02:26:05;;;;;;;;;0.00;0.00;;;;;19.54;91.71;97042.84;6160213;23;45520;-85
2023/10/20 02:28:35;;;;;;;;;0.00;0.00;;;;;19.52;91.97;97044.81;6187857;23;45288;-85
2023/10/20 02:31:09;;;;;;;;;0.00;0.00;;;;;19.54;92.65;97029.38;6187062;23;45467;-85
2023/10/20 02:33:35;;;;;;;;;0.00;0.00;;;;;19.49;92.77;97017.25;6186082;23;45444;-85
2023/10/20 02:36:01;;;;;;;;;0.00;0.00;;;;;19.46;92.46;97025.59;6157029;23;45389;-85
2023/10/20 02:38:26;;;;;;;;;0.00;0.00;;;;;19.51;92.88;97035.03;6157627;23;45521;-85
2023/10/20 02:40:53;;;;;;;;;0.00;0.00;;;;;19.55;93.04;97043.69;6185206;23;45341;-85
2023/10/20 02:43:19;;;;;;;;;0.00;0.00;;;;;19.42;92.99;97034.94;6184690;23;45427;-85
2023/10/20 02:45:52;;;;;;;;;0.00;0.00;;;;;19.47;94.14;97027.31;6158370;23;45771;-86
2023/10/20 02:48:21;;;;;;;;;0.00;0.00;;;;;19.22;94.60;97020.38;6159616;23;45769;-85
2023/10/20 02:50:47;;;;;;;;;0.00;0.00;;;;;19.08;95.47;97011.56;6185837;22;45365;-84
2023/10/20 02:53:13;;;;;;;;;0.00;0.00;;;;;19.03;95.86;97020.97;6158970;23;47960;-85
2023/10/20 02:55:42;;;;;;;;;0.25;0.25;;;;;19.02;96.38;97021.97;6132262;23;45685;-85
2023/10/20 02:58:10;;;;;;;;;0.00;0.00;;;;;18.95;96.76;97021.63;6159535;23;45480;-86
2023/10/20 03:00:45;;;;;;;;;0.00;0.00;;;;;18.95;97.18;97035.94;6187090;22;45312;-85
2023/10/20 03:03:17;;;;;;;;;0.00;0.00;;;;;19.13;97.16;97028.22;6187070;23;46524;-85
2023/10/20 03:05:43;;;;;;;;;0.00;0.00;;;;;19.01;97.76;97028.31;6187057;23;45492;-85
2023/10/20 03:08:09;;;;;;;;;0.00;0.00;;;;;19.04;97.28;97020.84;6186865;23;45445;-85
2023/10/20 03:10:36;;;;;;;;;0.00;0.00;;;;;18.98;97.38;97008.75;6159756;23;45453;-85
2023/10/20 03:13:02;;;;;;;;;0.25;0.00;;;;;19.03;97.21;97020.97;6160303;23;48316;-85
2023/10/20 03:15:28;;;;;;;;;0.00;0.00;;;;;19.07;97.59;97030.56;6161841;23;44889;-84
2023/10/20 03:17:53;;;;;;;;;0.00;0.00;;;;;19.17;97.86;97023.44;6159114;23;45419;-85
2023/10/20 03:20:24;;;;;;;;;0.00;0.00;;;;;19.22;97.42;97029.31;6158771;23;45563;-84
2023/10/20 03:22:53;;;;;;;;;0.00;0.00;;;;;19.24;97.19;97018.41;6185191;23;45833;-85
2023/10/20 03:25:18;;;;;;;;;0.00;0.00;;;;;19.22;97.44;97002.38;6158737;22;45949;-85
2023/10/20 03:27:44;;;;;;;;;3.50;3.00;;;;;19.28;97.06;97003.72;6160702;23;45365;-86
2023/10/20 03:30:09;;;;;;;;;2.00;2.00;;;;;19.28;96.67;97003.72;6187451;22;45356;-85
2023/10/20 03:32:35;;;;;;;;;0.00;0.00;;;;;19.19;97.09;96978.38;6159133;22;46929;-86
2023/10/20 03:35:00;;;;;;;;;0.00;0.00;;;;;19.21;97.23;96978.25;6185558;23;45419;-86
2023/10/20 03:37:27;;;;;;;;;0.00;0.00;;;;;19.21;96.86;96984.50;6184098;23;45488;-85
2023/10/20 03:39:53;;;;;;;;;0.00;0.00;;;;;19.14;96.90;96983.28;6160187;22;45672;-86
2023/10/20 03:42:18;;;;;;;;;0.00;0.00;;;;;19.14;96.88;96985.97;6136570;23;47325;-84
2023/10/20 03:44:43;;;;;;;;;0.00;0.00;;;;;19.15;97.04;96974.22;6187824;22;45320;-86
2023/10/20 03:47:09;;;;;;;;;0.00;0.00;;;;;19.17;96.87;96967.72;6161157;23;45303;-85
2023/10/20 03:49:35;;;;;;;;;0.00;0.00;;;;;19.11;96.17;96972.78;6161817;23;45554;-85
2023/10/20 03:52:06;;;;;;;;;0.00;0.00;;;;;19.27;96.51;96989.41;6187395;23;45300;-84
2023/10/20 03:54:34;;;;;;;;;0.00;0.00;;;;;19.07;96.77;96985.63;6159698;23;45414;-84
2023/10/20 03:57:00;;;;;;;;;0.00;0.00;;;;;19.14;96.32;96988.66;6161869;22;45249;-85
2023/10/20 03:59:26;;;;;;;;;0.00;0.00;;;;;19.12;95.94;97001.41;6190709;22;44746;-86
2023/10/20 04:01:51;;;;;;;;;0.00;0.00;;;;;19.14;96.08;97021.84;6218016;22;46295;-85
2023/10/20 04:04:17;;;;;;;;;0.00;0.00;;;;;19.18;96.10;97025.16;6218730;22;45340;-85
2023/10/20 04:06:44;;;;;;;;;0.00;0.00;;;;;19.18;96.04;97039.47;6218060;22;45264;-85
2023/10/20 04:09:17;;;;;;;;;0.00;0.00;;;;;19.15;95.85;97028.09;6217969;22;45409;-85
2023/10/20 04:11:43;;;;;;;;;0.00;0.00;;;;;19.16;95.96;97027.09;6190518;22;48045;-85
2023/10/20 04:14:09;;;;;;;;;0.25;0.00;;;;;19.14;95.65;97026.38;6215223;22;45311;-84
2023/10/20 04:16:42;;;;;;;;;0.00;0.00;;;;;19.19;96.10;97034.94;6215508;22;45324;-86
2023/10/20 04:19:09;;;;;;;;;0.00;0.00;;;;;19.23;95.80;97031.03;6217053;22;45704;-85
2023/10/20 04:21:43;;;;;;;;;0.00;0.00;;;;;19.29;95.71;97029.66;6214831;22;47991;-86
2023/10/20 04:24:10;;;;;;;;;0.00;0.00;;;;;19.13;95.97;97030.06;6191266;22;45999;-86
2023/10/20 04:26:37;;;;;;;;;0.00;0.00;;;;;19.06;96.02;97023.44;6165363;22;45389;-86
2023/10/20 04:29:33;;;;;;;;;0.00;0.00;;;;;19.03;95.94;97043.41;6190586;22;45341;-85
2023/10/20 04:51:45;;;;;;;;;0.00;0.00;;;;;18.96;95.90;97071.78;6065623;23;45427;-84
2023/10/20 04:54:22;;;;;;;;;0.00;0.00;;;;;18.97;95.95;97077.06;6065219;23;45411;-85
2023/10/20 04:59:31;;;;;;;;;0.00;0.00;;;;;18.92;95.73;97086.47;6068060;23;45261;-85
2023/10/20 05:02:10;;;;;;;;;0.00;0.00;;;;;18.89;95.37;97084.88;6068208;23;45461;-85
2023/10/20 05:04:40;;;;;;;;;0.00;0.00;;;;;18.88;95.71;97095.75;6067549;23;47260;-85
2023/10/20 05:07:08;;;;;;;;;0.00;0.00;;;;;18.83;95.79;97093.44;6067884;23;45393;-86
2023/10/20 05:09:40;;;;;;;;;0.00;0.00;;;;;18.79;95.85;97091.97;6067130;23;45293;-86
2023/10/20 05:12:06;;;;;;;;;0.00;0.00;;;;;18.91;95.78;97100.91;6065803;23;45380;-85
2023/10/20 05:14:32;;;;;;;;;0.00;0.00;;;;;18.88;95.98;97101.13;6042463;23;45476;-84
2023/10/20 05:16:57;;;;;;;;;1.00;1.00;;;;;18.90;96.22;97101.88;6064051;23;45338;-85
2023/10/20 05:19:23;;;;;;;;;0.00;0.00;;;;;18.89;95.89;97111.81;6099102;23;45267;-84
2023/10/20 05:21:51;;;;;;;;;0.00;0.00;;;;;18.85;96.22;97096.88;6187456;23;45362;-84
2023/10/20 05:24:16;;;;;;;;;0.50;0.00;;;;;18.90;96.16;97100.03;6186800;23;45450;-83
2023/10/20 05:26:45;;;;;;;;;0.75;0.75;;;;;19.10;95.92;97094.94;6160221;23;45677;-84
2023/10/20 05:29:11;;;;;;;;;0.00;0.00;;;;;18.88;96.40;97085.84;6187744;23;45385;-84
2023/10/20 05:31:36;;;;;;;;;1.00;1.00;;;;;18.96;96.53;97087.94;6185885;23;45222;-84
2023/10/20 05:34:04;;;;;;;;;0.00;0.00;;;;;19.09;96.50;97071.69;6160723;23;47213;-86
2023/10/20 05:36:29;;;;;;;;;0.75;0.75;;;;;18.98;96.59;97086.81;6187174;23;45406;-84
2023/10/20 05:38:54;;;;;;;;;1.00;1.00;;;;;18.92;96.40;97060.38;6186254;23;45354;-85
2023/10/20 05:41:21;;;;;;;;;0.00;0.00;;;;;18.86;96.72;97033.94;6185891;22;44767;-86
2023/10/20 05:43:47;;;;;;;;;1.00;1.00;;;;;18.87;96.34;97043.75;6187024;23;47124;-86
2023/10/20 05:46:15;;;;;;;;;1.00;1.00;;;;;18.94;96.38;97036.03;6186519;23;45288;-87
2023/10/20 05:48:44;;;;;;;;;1.00;1.00;;;;;18.90;96.30;97051.56;6162884;23;45383;-87
2023/10/20 05:51:11;;;;;;;;;1.00;1.00;;;;;18.71;96.44;97035.16;6189911;23;45424;-85
2023/10/20 05:53:44;;;;;;;;;2.25;1.50;;;;;18.91;96.32;97030.91;6198481;23;47170;-87
2023/10/20 05:56:10;;;;;;;;;2.00;2.00;;;;;18.88;96.80;97056.22;6187155;23;45519;-88
2023/10/20 05:58:38;;;;;;;;;2.50;1.00;;;;;18.76;96.49;97043.69;6212869;22;44797;-87
2023/10/20 06:01:09;;;;;;;;;3.00;2.75;;;;;18.93;96.96;97056.72;6193468;22;45400;-87
2023/10/20 06:06:24;;;;;;;;;2.00;2.00;;;;;18.74;96.71;97042.97;6222284;22;45452;-88
2023/10/20 06:08:52;;;;;;;;;2.50;2.50;;;;;18.84;96.45;97061.97;6219932;22;45490;-88
2023/10/20 06:11:17;;;;;;;;;2.25;2.00;;;;;18.87;96.60;97070.69;6220911;22;45336;-88
2023/10/20 06:13:43;;;;;;;;;2.75;2.75;;;;;18.78;96.45;97063.28;6223016;22;46801;-89
2023/10/20 06:16:11;;;;;;;;;1.25;1.25;;;;;18.88;96.27;97056.22;6221395;22;45357;-86
2023/10/20 06:18:44;;;;;;;;;2.75;2.75;;;;;18.97;95.78;97058.19;6194617;22;45435;-89
2023/10/20 06:21:14;;;;;;;;;2.00;2.00;;;;;18.98;96.08;97048.28;6196479;22;45584;-89
2023/10/20 06:23:46;;;;;;;;;2.00;2.00;;;;;18.96;95.79;97056.47;6226192;22;45477;-88
2023/10/20 06:26:12;;;;;;;;;3.00;3.00;;;;;18.68;96.13;97051.50;6224501;22;45296;-89
2023/10/20 06:34:36;;;;;;;;;1.25;1.25;;;;;19.02;95.89;97086.59;6221380;22;45054;-87
2023/10/20 06:37:14;;;;;;;;;2.67;2.00;;;;;18.98;95.98;97083.28;6195305;22;45333;-89
2023/10/20 06:39:40;;;;;;;;;1.00;1.00;;;;;19.04;95.73;97068.47;6196552;22;44797;-88
2023/10/20 06:42:06;;;;;;;;;2.33;2.33;;;;;18.84;95.87;97057.44;6198216;22;44835;-87
2023/10/20 06:44:34;;;;;;;;;1.75;1.75;;;;;18.82;95.68;97048.63;6171290;22;46311;-88
2023/10/20 06:46:59;;;;;;;;;1.33;1.33;;;;;18.82;95.69;97037.88;6195377;22;44752;-87
2023/10/20 06:49:50;;;;;;;;;1.00;1.00;;;;;19.29;95.13;97067.38;6196195;22;45442;-87
2023/10/20 06:52:17;;;;;;;;;2.00;2.00;;;;;19.05;95.79;97071.06;6221955;22;44936;-87
2023/10/20 06:54:46;;;;;;;;;2.00;2.00;;;;;19.12;95.59;97072.28;6201640;22;47126;-88
2023/10/20 06:57:58;;;;;;;;;3.67;3.67;;;;;19.30;94.83;97090.66;6226629;22;45765;-88
2023/10/20 07:00:24;;;;;;;;;3.33;3.33;;;;;18.98;95.54;97092.22;6174430;22;45142;-87
2023/10/20 07:02:49;;;;;;;;;5.00;3.67;;;;;19.03;95.89;97104.47;6195773;22;45550;-85
2023/10/20 07:05:17;;;;;;;;;2.00;2.00;;;;;18.99;95.67;97103.88;6167379;22;46617;-87
2023/10/20 07:07:42;;;;;;;;;1.75;1.75;;;;;18.96;95.67;97102.25;6197943;22;45352;-89
2023/10/20 07:10:10;;;;;;;;;2.00;2.00;;;;;19.18;95.71;97114.03;6201140;22;45300;-88
2023/10/20 07:12:37;;;;;;;;;2.00;2.00;;;;;19.07;96.20;97109.50;6165563;23;45178;-87
2023/10/20 07:15:03;;;;;;;;;2.25;2.00;;;;;19.16;95.49;97108.75;6169123;22;46701;-86
2023/10/20 07:17:28;;;;;;;;;2.75;2.75;;;;;19.15;95.26;97109.75;6165848;23;45308;-84
2023/10/20 07:19:53;;;;;;;;;1.00;1.00;;;;;19.20;94.90;97112.06;6191518;22;44813;-88
2023/10/20 07:22:19;;;;;;;;;2.50;2.50;;;;;19.19;94.73;97105.00;6166239;22;44803;-87
2023/10/20 07:24:59;;;;;;;;;1.25;1.25;;;;;19.29;94.86;97108.66;6167281;22;46833;-88
2023/10/20 07:27:25;;;;;;;;;3.00;3.00;;;;;19.06;94.59;97106.94;6166854;22;44860;-88
2023/10/20 07:29:55;;;;;;;;;3.67;2.33;;;;;19.25;94.84;97109.88;6197633;22;45354;-87
2023/10/20 07:32:30;;;;;;;;;3.00;3.00;;;;;19.27;94.44;97112.44;6194076;23;45277;-87
2023/10/20 07:38:18;;;;;;;;;7.00;7.00;;;;;19.22;93.59;97104.72;6193567;22;45269;-86
2023/10/20 07:40:48;;;;;;;;;8.00;6.67;;;;;19.17;93.27;97093.47;6192997;23;44749;-87
2023/10/20 07:43:13;;;;;;;;;4.00;3.00;;;;;19.30;93.19;97114.91;6168171;23;45393;-86
2023/10/20 07:45:43;;;;;;;;;1.50;1.50;;;;;19.30;92.28;97091.50;6167734;23;47096;-85
2023/10/20 07:48:09;;;;;;;;;3.00;3.00;;;;;19.40;92.57;97140.13;6164697;23;45396;-87
2023/10/20 07:50:35;;;;;;;;;3.75;3.75;;;;;19.33;92.18;97136.19;6165541;23;45508;-87
2023/10/20 07:53:15;;;;;;;;;3.00;3.00;;;;;19.54;92.10;97122.84;6172420;22;44921;-86
2023/10/20 07:55:42;;;;;;;;;3.00;3.00;;;;;19.21;92.16;97124.59;6165118;23;46844;-83
2023/10/20 07:58:20;;;;;;;;;3.25;3.25;;;;;19.38;92.30;97116.00;6162593;22;46248;-84
2023/10/20 08:00:46;;;;;;;;;3.00;3.00;;;;;19.36;92.23;97134.13;6200900;22;44938;-84
2023/10/20 08:03:11;;;;;;;;;3.25;3.25;;;;;19.37;92.74;97127.75;6200853;22;45305;-87
2023/10/20 08:05:40;;;;;;;;;3.67;3.67;;;;;19.39;91.90;97122.25;6231994;22;45169;-85
2023/10/20 08:11:29;;;;;;;;;2.75;2.75;;;;;19.74;91.37;97140.16;6223069;22;45390;-85
2023/10/20 08:14:02;;;;;;;;;1.00;1.00;;;;;19.66;90.90;97150.66;6199631;22;45364;-83
2023/10/20 08:16:36;;;;;;;;;2.50;2.50;;;;;19.76;90.97;97160.63;6196070;22;47568;-84
2023/10/20 08:19:05;;;;;;;;;3.00;3.00;;;;;19.59;90.37;97121.53;6227584;22;45693;-84
2023/10/20 08:21:30;;;;;;;;;3.50;3.00;;;;;19.76;90.61;97157.91;6222531;22;45481;-84
2023/10/20 08:29:16;;;;;;;;;2.50;2.50;;;;;20.08;89.66;97184.13;6237848;22;45569;-84
2023/10/20 08:31:45;;;;;;;;;1.75;1.75;;;;;19.90;89.54;97175.69;6256606;22;45331;-84
2023/10/20 08:34:10;;;;;;;;;1.75;1.50;;;;;19.79;89.79;97154.09;6188000;22;45152;-84
2023/10/20 08:36:38;;;;;;;;;2.00;2.00;;;;;20.18;89.82;97166.19;6249791;22;46890;-84
2023/10/20 08:39:13;;;;;;;;;3.00;3.00;;;;;20.35;89.42;97174.72;6251889;22;45355;-86
2023/10/20 08:41:45;;;;;;;;;1.50;1.00;;;;;20.24;88.82;97145.06;6168601;22;46475;-84
2023/10/20 08:44:15;;;;;;;;;3.75;2.25;;;;;20.17;88.35;97142.03;6165353;22;46536;-85
2023/10/20 08:46:45;;;;;;;;;2.25;2.25;;;;;20.35;87.41;97136.94;6201540;22;47111;-84
2023/10/20 08:49:11;;;;;;;;;2.00;2.00;;;;;20.50;87.34;97161.78;6196430;22;45214;-85
2023/10/20 08:51:40;;;;;;;;;3.00;3.00;;;;;20.45;86.56;97145.97;6199256;22;45353;-86
2023/10/20 08:54:09;;;;;;;;;2.00;2.00;;;;;20.91;86.69;97166.44;6181034;22;44809;-85
2023/10/20 08:56:46;;;;;;;;;2.25;2.25;;;;;20.67;86.59;97139.66;6204072;22;47551;-85
2023/10/20 08:59:14;;;;;;;;;2.00;2.00;;;;;20.81;86.07;97159.25;6231598;22;44862;-84
2023/10/20 09:04:25;;;;;;;;;4.50;3.25;;;;;21.02;84.72;97164.66;6203472;22;45694;-84
2023/10/20 09:07:07;;;;;;;;;;;;;;;;;;;;;
2023/10/20 09:09:43;;;;;;;;;12.00;8.50;;;;;21.03;83.82;97177.19;6195345;23;73124;-85
2023/10/20 09:12:10;;;;;;;;;2.25;2.25;;;;;20.66;84.00;97166.78;6170442;23;45376;-84
2023/10/20 09:14:44;;;;;;;;;4.00;4.00;;;;;20.99;83.20;97192.78;6171899;23;44927;-85
2023/10/20 09:17:33;;;;;;;;;6.50;5.25;;;;;20.80;82.71;97150.28;6178817;23;46623;-86
2023/10/20 09:22:57;;;;;;;;;5.50;5.00;;;;;20.83;83.42;97168.06;6096987;23;44788;-87
2023/10/20 09:29:07;;;;;;;;;4.00;2.00;;;;;21.20;83.28;97200.88;6100282;23;45351;-82
2023/10/20 09:31:35;;;;;;;;;1.00;1.00;;;;;21.13;82.63;97180.81;6076980;23;45469;-82
2023/10/20 09:34:09;;;;;;;;;3.00;3.00;;;;;21.05;82.67;97186.88;6102388;23;45453;-82
2023/10/20 09:36:35;;;;;;;;;4.25;4.25;;;;;20.97;82.03;97165.06;6078023;23;45305;-82
2023/10/20 09:39:03;;;;;;;;;3.75;3.00;;;;;21.07;82.49;97193.00;6077467;23;47045;-84
2023/10/20 09:41:35;;;;;;;;;6.00;4.00;;;;;21.17;82.42;97203.88;6076958;23;45486;-82
2023/10/20 09:44:08;;;;;;;;;2.25;1.75;;;;;21.45;81.82;97196.09;6101168;23;45294;-83
2023/10/20 09:47:21;;;;;;;;;4.00;2.50;;;;;21.71;81.65;97197.38;6102550;23;45272;-85
2023/10/20 09:49:47;;;;;;;;;4.00;4.00;;;;;21.50;81.41;97186.59;6098522;23;46421;-83
2023/10/20 09:55:49;;;;;;;;;2.75;2.75;;;;;21.89;79.42;97199.44;6105405;23;45359;-84
2023/10/20 09:58:27;;;;;;;;;5.75;4.00;;;;;22.08;79.73;97204.94;6140743;23;45557;-85
2023/10/20 10:00:58;;;;;;;;;4.50;3.50;;;;;21.98;79.22;97204.03;6139778;23;48030;-84
2023/10/20 10:03:28;;;;;;;;;3.50;3.50;;;;;22.05;78.10;97210.59;6141045;23;44850;-84
2023/10/20 10:09:15;;;;;;;;;3.00;3.00;;;;;21.98;78.19;97209.44;6165592;23;45408;-82
2023/10/20 10:11:54;;;;;;;;;5.50;4.00;;;;;22.31;77.61;97202.88;6165167;23;45929;-82
2023/10/20 10:14:36;;;;;;;;;5.00;4.75;;;;;22.38;76.93;97219.44;6165689;23;45094;-83
2023/10/20 10:17:11;;;;;;;;;5.00;5.00;;;;;22.33;76.88;97224.41;6166093;23;45124;-82
2023/10/20 10:23:16;;;;;;;;;5.25;4.50;;;;;21.92;76.97;97204.59;6160988;23;45357;-82
2023/10/20 10:25:46;;;;;;;;;4.50;4.50;;;;;21.67;77.14;97205.88;6135408;23;45449;-83
2023/10/20 10:28:13;;;;;;;;;5.00;5.00;;;;;21.56;77.95;97214.94;6132482;23;45325;-82
2023/10/20 10:30:39;;;;;;;;;5.00;5.00;;;;;21.47;78.09;97215.75;6159695;23;45322;-83
2023/10/20 10:33:10;;;;;;;;;4.00;4.00;;;;;21.74;78.39;97245.78;6161716;23;45356;-81
2023/10/20 10:35:38;;;;;;;;;5.00;4.75;;;;;21.60;79.35;97248.84;6160006;23;45435;-82
2023/10/20 10:38:24;;;;;;;;;7.00;4.00;;;;;21.76;78.61;97224.03;6163752;23;45328;-82
2023/10/20 10:40:52;;;;;;;;;4.00;4.00;;;;;21.82;78.73;97241.56;6165614;23;45509;-82
2023/10/20 10:43:21;;;;;;;;;7.25;6.75;;;;;21.76;77.99;97251.91;6166295;23;46235;-82
2023/10/20 10:45:56;;;;;;;;;0.00;0.00;;;;;21.76;78.46;97242.97;6139357;23;45600;-82
2023/10/20 10:48:29;;;;;;;;;8.33;5.33;;;;;21.67;78.56;97233.81;6163042;23;45455;-84
2023/10/20 10:50:56;;;;;;;;;5.00;5.00;;;;;21.50;79.40;97248.78;6136802;23;45102;-82
2023/10/20 10:58:22;;;;;;;;;4.00;4.00;;;;;22.16;79.21;97248.41;5995309;23;45503;-81
2023/10/20 11:01:09;;;;;;;;;6.00;6.00;;;;;22.36;78.95;97251.22;5986181;23;44845;-87
2023/10/20 11:03:49;;;;;;;;;7.75;6.50;;;;;22.48;78.30;97247.41;5974184;23;45049;-84
2023/10/20 11:08:51;;;;;;;;;4.00;4.00;;;;;22.63;77.58;97218.03;6186325;22;45270;-84
2023/10/20 11:11:19;;;;;;;;;5.50;4.00;;;;;22.67;76.98;97222.19;6231820;22;45165;-86
2023/10/20 11:13:52;;;;;;;;;7.00;5.75;;;;;22.54;75.77;97229.69;6209423;22;45535;-86
2023/10/20 11:16:19;;;;;;;;;6.00;6.00;;;;;22.53;75.08;97220.72;6208322;22;47065;-89
2023/10/20 11:18:47;;;;;;;;;6.67;6.00;;;;;22.37;75.61;97229.38;6235239;22;44828;-85
2023/10/20 11:21:15;;;;;;;;;5.25;5.25;;;;;22.28;75.49;97242.88;6205612;22;45374;-87
2023/10/20 11:23:49;;;;;;;;;5.75;4.00;;;;;22.11;75.93;97214.63;6233908;22;44861;-85
2023/10/20 11:34:01;;;;;;;;;5.75;4.75;;;;;21.86;79.02;97232.19;6208589;22;45955;-84
2023/10/20 11:36:27;;;;;;;;;6.00;5.00;;;;;21.67;79.39;97205.88;6201550;22;45625;-84
2023/10/20 11:38:52;;;;;;;;;6.25;3.50;;;;;21.77;79.67;97215.78;6235135;22;45022;-82
2023/10/20 11:41:18;;;;;;;;;4.00;4.00;;;;;21.76;80.68;97197.81;6206570;22;44795;-82
2023/10/20 11:43:46;;;;;;;;;4.00;4.00;;;;;22.03;79.76;97195.50;6210089;22;44904;-83
2023/10/20 12:12:20;;;;;;;;;5.00;5.00;;;;;21.60;79.45;97218.25;5714390;22;10826931;-85
2023/10/20 13:03:32;;;;;;;;;2.75;2.75;;;;;22.44;76.15;97169.25;6192668;22;46698;-88
2023/10/20 13:06:06;;;;;;;;;3.00;3.00;;;;;22.80;75.42;97189.38;6216973;22;45360;-85
2023/10/20 13:08:32;;;;;;;;;2.75;2.75;;;;;22.35;75.83;97152.88;6267050;22;44880;-88
2023/10/20 13:29:05;;;;;;;;;3.00;3.00;;;;;23.08;74.01;97187.69;6169741;22;46371;-84
2023/10/20 13:31:34;;;;;;;;;1.00;1.00;;;;;22.97;73.77;97168.88;6253967;22;45084;-85
2023/10/20 13:34:02;;;;;;;;;2.00;2.00;;;;;23.00;73.06;97194.81;6256707;22;46349;-84
2023/10/20 13:36:28;;;;;;;;;2.00;2.00;;;;;22.86;72.53;97177.97;6220211;22;45320;-87
2023/10/20 13:38:54;;;;;;;;;1.25;1.25;;;;;22.68;72.70;97142.66;6226308;22;44783;-84
2023/10/20 13:41:20;;;;;;;;;2.50;2.50;;;;;22.57;71.99;97170.72;6226847;22;45148;-85
2023/10/20 13:43:51;;;;;;;;;3.00;3.00;;;;;22.81;72.49;97191.13;6226318;22;47080;-84
2023/10/20 13:46:34;;;;;;;;;3.00;3.00;;;;;22.46;72.67;97160.03;6226351;22;45400;-84
2023/10/20 13:49:01;;;;;;;;;2.50;2.50;;;;;22.71;72.91;97171.28;6253403;22;45431;-85
2023/10/20 13:51:28;;;;;;;;;3.00;3.00;;;;;22.74;72.87;97193.53;6229100;22;45816;-85
2023/10/20 13:53:54;;;;;;;;;2.75;2.75;;;;;22.53;71.44;97171.13;6228753;22;47077;-87
2023/10/20 13:56:24;;;;;;;;;5.00;3.25;;;;;22.87;71.69;97206.81;6254584;22;44735;-84
2023/10/20 13:58:49;;;;;;;;;2.25;2.00;;;;;22.64;71.87;97168.28;6254957;22;44974;-86
2023/10/20 14:01:57;;;;;;;;;2.50;2.00;;;;;23.18;71.13;97198.53;6226465;22;45363;-85
2023/10/20 14:04:23;;;;;;;;;2.75;2.75;;;;;22.96;71.29;97194.25;6260671;22;45509;-87
2023/10/20 14:07:34;;;;;;;;;2.00;2.00;;;;;23.20;70.95;97179.41;6234701;22;44866;-87
2023/10/20 14:10:11;;;;;;;;;3.00;2.25;;;;;23.25;71.66;97196.97;6237516;22;45008;-87
2023/10/20 14:12:50;;;;;;;;;;;;;;;;;;;;;
2023/10/20 14:40:21;;;;;;;;;2.25;2.00;;;;;23.33;68.26;97159.13;6178503;22;44911;-85
2023/10/20 14:43:15;;;;;;;;;2.50;2.50;;;;;23.26;68.19;97206.78;6174080;23;44785;-87
2023/10/20 14:45:40;;;;;;;;;2.75;2.00;;;;;23.02;68.08;97182.00;6125977;23;44862;-88
2023/10/20 14:48:33;;;;;;;;;4.00;3.00;;;;;23.32;67.60;97200.78;6150720;23;46823;-89
2023/10/20 14:51:10;;;;;;;;;2.00;2.00;;;;;23.28;68.17;97203.94;6127366;23;44874;-86
2023/10/20 14:53:38;;;;;;;;;2.00;2.00;;;;;22.83;68.60;97170.16;6147062;23;44838;-88
2023/10/20 14:56:16;;;;;;;;;2.25;2.25;;;;;23.15;68.50;97205.09;6145417;23;44863;-88
2023/10/20 14:58:42;;;;;;;;;2.00;2.00;;;;;22.77;68.80;97190.53;6145814;22;45575;-88
2023/10/20 15:01:09;;;;;;;;;2.25;2.00;;;;;22.87;68.83;97201.38;6205071;22;45056;-89
2023/10/20 15:06:13;;;;;;;;;2.75;2.25;;;;;22.75;69.51;97197.09;6147506;22;46832;-88